Aérodrome :
LOGIN :

S'inscrire | Disclaimer

   EN    FR    IT 

 










Légende :    VFR   VFR Marginal   IFR   IFR Intensif   IFR Très Intensif
Visi : 
Plafond : 
>= 8 km
>= 3000ft
5 à 8 km
1000 à 3000 ft
1500m à 5 km
500 à 1000 ft
800 à 1500m
200 à 500 ft
< 800m
< 200 ft
Symboles :   Orages  Brouillard  Fortes neiges  Fortes précipitations  Vent > 20 kt
SIGMETs :   Divers  Orages  Givrage  Turbulence  Onde Orograph.  Cendres Volcan.







- Altitude de l'aérodrome : 2595 ft
- Code IATA : SLM


LESA - Salamanca Matacan

DERNIER METAR :
  • 131500Z 31019KT 9999 FEW030 06/02 Q1013

METARs EXPIRÉS :
  • 131430Z 31022G32KT 9999 SCT030 07/01 Q1012
  • 131400Z 31022G35KT 280V340 9999 SCT028 07/02 Q1011
  • 131330Z 30024KT 9999 SCT025 07/02 Q1011
  • 131300Z 31020G30KT 270V340 9999 SCT025 07/02 Q1011
  • 131230Z 30020KT 9999 BKN022 06/02 Q1011

TAF TAF LESA
Valide du 13 à 12h jusqu'au 14 à 12h UTC


131100Z 1312/1412 29015KT 9999 BKN020 TX08/1314Z TN03/1407Z
TEMPO 1312/1318 22020G30KT
PROB30
TEMPO 1312/1316 SCT012CB
PROB40
TEMPO 1403/1409 3000 BR BKN006
PROB30
TEMPO 1404/1409 0500 FG BKN003
Pas de NOTAMs connus pour ce terrain.
2 SIGMETs publiés pour la FIR Madrid (LECM) :
 
Turbulence forte
LECM SIGMET 6 VALID 131200/131600 LEVA
LECM MADRID FIR/UIR SEV TURB FCST W OF LINE N4441 W00554 - N39 W00527 FL220/400 MOV ENE NC=
Turbulence forte
LECM SIGMET 5 VALID 131200/131600 LEVA
LECM MADRID FIR SEV TURB FCST E OF LINE N4436 W00555 - N3552 W00507 SFC/FL220 MOV E NC=



MET'MAP, la Météo Aéronautique d'un coup d'oeil ! - Copyright ORBIFLY Décembre 2007 - Disclaimer

ORBIFLY MET'MAP TEAM :

Programmation & Développement : Alexandra Zaïnal
Conception & Développement : Baudouin d'Aumeries
Co-Programmation & Développement : Marc-Olivier Méhu
Soutien technique & logistique : Manuel Goepfert

Contact : metmap@orbifly.com




SOURCES & CREDITS :

   NOAA